Time;durP1;ratioP1;P1;durP2;ratioP2;P2;SDS_P1;SDS_P2;PMS_P1;PMS_P2;Temp;Humidity;BMP_temperature;BMP_pressure;BME280_temperature;BME280_humidity;BME280_pressure;Samples;Min_cycle;Max_cycle;Signal;HPM_P1;HPM_P2
2021/07/14 00:01:51;;;;;;;6.10;2.60;;;21.40;62.20;;;;;;5053168;28;20372;-72
2021/07/14 00:04:17;;;;;;;5.18;2.85;;;21.40;62.60;;;;;;5053025;28;20075;-72
2021/07/14 00:06:42;;;;;;;3.88;2.20;;;21.40;63.20;;;;;;5053060;28;20028;-72
2021/07/14 00:09:09;;;;;;;3.47;1.95;;;21.40;63.20;;;;;;5052939;28;20096;-72
2021/07/14 00:11:54;;;;;;;6.07;2.67;;;21.40;63.30;;;;;;5052911;28;20167;-72
2021/07/14 00:22:19;;;;;;;8.18;3.67;;;21.30;66.30;;;;;;5072786;28;20302;-72
2021/07/14 00:24:46;;;;;;;7.55;3.15;;;21.20;66.70;;;;;;5072698;28;20347;-72
2021/07/14 00:27:12;;;;;;;4.22;2.63;;;21.10;66.80;;;;;;5072562;28;20024;-72
2021/07/14 00:29:53;;;;;;;5.68;3.20;;;21.00;66.70;;;;;;5067514;28;20475;-72
2021/07/14 00:32:20;;;;;;;7.40;3.33;;;20.90;66.80;;;;;;5051251;28;20429;-72
2021/07/14 00:34:46;;;;;;;6.00;3.50;;;20.80;66.70;;;;;;5067322;28;20031;-72
2021/07/14 00:37:13;;;;;;;5.55;3.30;;;20.70;66.70;;;;;;5059547;28;20428;-72
2021/07/14 00:39:39;;;;;;;3.38;2.40;;;20.60;67.10;;;;;;5052482;28;20025;-72
2021/07/14 00:42:06;;;;;;;5.57;2.63;;;20.60;67.30;;;;;;5051413;28;20505;-72
2021/07/14 00:44:32;;;;;;;5.88;3.05;;;20.50;67.80;;;;;;5052335;28;20459;-72
2021/07/14 00:47:00;;;;;;;5.13;3.70;;;20.50;68.20;;;;;;5052027;28;20028;-72
2021/07/14 00:49:27;;;;;;;6.93;3.80;;;20.50;68.30;;;;;;5052040;28;20033;-72
2021/07/14 00:51:53;;;;;;;8.77;3.95;;;20.50;68.30;;;;;;5055014;28;20048;-72
2021/07/14 00:54:19;;;;;;;5.95;3.33;;;20.50;67.90;;;;;;5068162;28;20067;-72
2021/07/14 00:56:46;;;;;;;4.10;3.53;;;20.50;68.20;;;;;;5072137;28;20025;-72
2021/07/14 00:59:12;;;;;;;4.05;2.90;;;20.50;69.00;;;;;;5072257;28;20051;-72
2021/07/14 01:01:38;;;;;;;6.15;4.72;;;20.50;68.20;;;;;;5072107;28;20048;-71
2021/07/14 01:04:12;;;;;;;6.88;4.40;;;20.50;68.40;;;;;;5072100;28;20025;-72
2021/07/14 01:06:51;;;;;;;3.75;3.45;;;20.50;68.50;;;;;;5066030;28;20021;-71
2021/07/14 01:09:24;;;;;;;4.43;3.80;;;20.60;68.50;;;;;;5052087;28;20101;-72
2021/07/14 01:11:54;;;;;;;7.10;3.58;;;20.60;68.20;;;;;;5058183;28;20048;-72
2021/07/14 01:14:25;;;;;;;4.35;3.95;;;20.70;68.30;;;;;;5072078;28;20016;-72
2021/07/14 01:17:00;;;;;;;5.68;4.03;;;20.70;68.30;;;;;;5068663;28;20122;-72
2021/07/14 01:20:02;;;;;;;5.75;3.85;;;20.70;68.10;;;;;;5062142;28;20028;-72
2021/07/14 01:22:52;;;;;;;4.32;3.63;;;20.70;67.90;;;;;;5070319;28;20028;-72
2021/07/14 01:25:41;;;;;;;7.20;3.58;;;20.70;67.80;;;;;;5071844;28;20023;-72
2021/07/14 01:28:08;;;;;;;5.70;3.83;;;20.80;67.80;;;;;;5070511;28;20044;-72
2021/07/14 01:30:34;;;;;;;4.78;3.85;;;20.80;67.70;;;;;;5053902;28;20033;-71
2021/07/14 01:33:03;;;;;;;5.15;4.38;;;20.80;68.00;;;;;;5051862;28;20028;-72
2021/07/14 01:35:36;;;;;;;5.93;3.95;;;20.90;67.90;;;;;;5050456;28;20398;-72
2021/07/14 01:38:03;;;;;;;5.18;4.68;;;20.80;67.60;;;;;;5067330;28;20539;-72
2021/07/14 01:40:31;;;;;;;7.22;4.50;;;20.80;67.50;;;;;;5055133;28;20025;-72
2021/07/14 01:43:00;;;;;;;5.75;4.28;;;20.80;67.40;;;;;;5051718;28;20025;-72
2021/07/14 01:45:32;;;;;;;5.22;3.83;;;20.90;67.50;;;;;;5051661;28;20386;-72
2021/07/14 01:48:00;;;;;;;6.32;4.10;;;20.80;67.40;;;;;;5051442;28;20032;-72
2021/07/14 01:50:29;;;;;;;3.17;2.88;;;20.80;67.60;;;;;;5051309;28;20080;-72
2021/07/14 01:52:55;;;;;;;15.05;4.47;;;20.80;67.80;;;;;;5053368;28;20048;-72
2021/07/14 01:55:23;;;;;;;35.42;5.22;;;20.80;68.10;;;;;;5055461;28;20025;-72
2021/07/14 01:57:52;;;;;;;6.45;3.78;;;20.80;70.60;;;;;;5055442;28;20039;-72
2021/07/14 02:00:19;;;;;;;5.18;3.67;;;20.70;70.90;;;;;;5055673;28;20082;-72
2021/07/14 02:03:01;;;;;;;6.35;4.38;;;20.60;71.20;;;;;;5055552;28;20014;-72
2021/07/14 02:05:28;;;;;;;4.40;3.63;;;20.60;71.10;;;;;;5055613;28;20036;-72
2021/07/14 02:07:54;;;;;;;5.15;4.32;;;20.50;71.10;;;;;;5055106;28;20067;-72
2021/07/14 02:10:19;;;;;;;5.78;3.95;;;20.50;71.60;;;;;;5055755;28;20029;-72
2021/07/14 02:12:48;;;;;;;6.00;3.80;;;20.40;71.90;;;;;;5056147;28;20036;-72
2021/07/14 02:15:14;;;;;;;4.38;3.83;;;20.40;72.10;;;;;;5056149;28;20052;-72
2021/07/14 02:17:47;;;;;;;5.03;3.70;;;20.40;72.40;;;;;;5055832;28;20060;-72
2021/07/14 02:20:16;;;;;;;3.87;3.13;;;20.40;72.40;;;;;;5056026;28;20029;-71
2021/07/14 02:22:42;;;;;;;6.40;4.38;;;20.30;72.60;;;;;;5054685;28;20032;-72
2021/07/14 02:25:09;;;;;;;5.78;3.97;;;20.30;73.00;;;;;;5055804;28;20593;-72
2021/07/14 02:27:35;;;;;;;7.28;5.18;;;20.30;73.20;;;;;;5055824;28;20036;-72
2021/07/14 02:30:01;;;;;;;6.07;4.82;;;20.30;73.40;;;;;;5055776;28;20386;-72
2021/07/14 02:32:26;;;;;;;5.88;4.75;;;20.30;73.40;;;;;;5055787;28;20035;-71
2021/07/14 02:34:55;;;;;;;6.55;4.25;;;20.30;73.50;;;;;;5055668;28;20029;-72
2021/07/14 02:37:42;;;;;;;7.13;5.13;;;20.30;73.50;;;;;;5055612;28;20029;-72
2021/07/14 02:40:10;;;;;;;6.03;4.65;;;20.20;73.20;;;;;;5055338;28;20025;-72
2021/07/14 02:42:37;;;;;;;5.38;4.25;;;20.20;73.90;;;;;;5055500;28;20032;-72
2021/07/14 02:45:05;;;;;;;6.38;4.20;;;20.20;74.20;;;;;;5055523;28;20031;-72
2021/07/14 02:47:41;;;;;;;5.68;3.45;;;20.20;74.40;;;;;;5054018;28;20121;-72
2021/07/14 02:50:28;;;;;;;4.88;3.55;;;20.10;74.40;;;;;;5055037;28;20037;-72
2021/07/14 02:53:12;;;;;;;4.28;3.72;;;20.10;74.30;;;;;;5055226;28;20027;-72
2021/07/14 02:55:39;;;;;;;4.30;3.60;;;20.10;74.90;;;;;;5054069;28;20056;-72
2021/07/14 02:58:08;;;;;;;7.72;4.18;;;20.10;75.00;;;;;;5054897;28;20040;-72
2021/07/14 03:00:38;;;;;;;5.75;4.22;;;20.10;75.20;;;;;;5055148;28;20028;-72
2021/07/14 03:03:09;;;;;;;4.50;3.00;;;20.10;75.20;;;;;;5055180;28;20041;-72
2021/07/14 03:05:36;;;;;;;5.95;3.25;;;20.10;75.40;;;;;;5054410;28;20097;-72
2021/07/14 03:08:05;;;;;;;3.67;2.75;;;20.10;75.40;;;;;;5054873;28;20021;-72
2021/07/14 03:10:31;;;;;;;4.78;3.60;;;20.10;75.50;;;;;;5054756;28;20028;-72
2021/07/14 03:13:02;;;;;;;6.75;4.20;;;20.10;75.30;;;;;;5054965;28;20367;-72
2021/07/14 03:15:30;;;;;;;5.43;3.40;;;20.10;75.30;;;;;;5054963;28;20025;-72
2021/07/14 03:17:57;;;;;;;6.75;3.70;;;20.10;75.20;;;;;;5054596;28;20025;-72
2021/07/14 03:20:24;;;;;;;2.90;2.45;;;20.10;75.20;;;;;;5053255;28;20100;-72
2021/07/14 03:22:52;;;;;;;5.82;3.17;;;20.10;75.10;;;;;;5054779;28;20020;-72
2021/07/14 03:25:19;;;;;;;3.53;2.95;;;20.10;75.20;;;;;;5053218;28;20052;-72
2021/07/14 03:27:48;;;;;;;3.88;2.70;;;20.10;75.20;;;;;;5054499;28;20024;-72
2021/07/14 03:30:15;;;;;;;8.65;4.43;;;20.10;75.00;;;;;;5052952;28;20032;-72
2021/07/14 03:32:41;;;;;;;3.55;3.13;;;20.10;75.00;;;;;;5054547;28;20025;-72
2021/07/14 03:35:08;;;;;;;6.07;3.58;;;20.20;75.10;;;;;;5054412;28;20029;-71
2021/07/14 03:37:35;;;;;;;7.10;3.83;;;20.20;75.20;;;;;;5054200;28;20028;-72
2021/07/14 03:40:04;;;;;;;3.83;2.92;;;20.20;75.40;;;;;;5053540;28;20025;-71
2021/07/14 03:42:31;;;;;;;5.82;3.08;;;20.20;75.40;;;;;;5054354;28;20021;-74
2021/07/14 03:44:58;;;;;;;3.55;2.55;;;20.30;75.60;;;;;;5052955;28;20031;-72
2021/07/14 03:47:26;;;;;;;4.68;3.17;;;20.30;75.60;;;;;;5054117;28;20025;-72
2021/07/14 03:49:54;;;;;;;6.43;3.47;;;20.40;75.70;;;;;;5052416;28;20394;-71
2021/07/14 03:52:22;;;;;;;7.95;4.32;;;20.40;75.60;;;;;;5056569;28;20085;-71
2021/07/14 03:54:49;;;;;;;7.13;3.85;;;20.40;75.20;;;;;;5072708;28;20027;-72
2021/07/14 03:57:16;;;;;;;5.72;4.00;;;20.40;74.70;;;;;;5072737;28;20038;-71
2021/07/14 03:59:42;;;;;;;6.18;3.17;;;20.50;74.50;;;;;;5060283;28;20048;-72
2021/07/14 04:02:13;;;;;;;5.97;3.80;;;20.50;74.40;;;;;;5053643;28;20048;-71
2021/07/14 04:04:40;;;;;;;5.30;3.50;;;20.50;74.10;;;;;;5052586;28;20021;-71
2021/07/14 04:07:16;;;;;;;5.05;3.80;;;20.50;73.70;;;;;;5053640;28;20238;-72
2021/07/14 04:09:46;;;;;;;6.05;4.28;;;20.40;73.60;;;;;;5052426;28;20029;-71
2021/07/14 04:12:13;;;;;;;4.97;4.00;;;20.50;73.70;;;;;;5052576;28;20033;-71
2021/07/14 04:14:39;;;;;;;5.93;4.22;;;20.50;73.70;;;;;;5053768;28;20506;-72
2021/07/14 04:17:06;;;;;;;7.45;5.85;;;20.50;73.90;;;;;;5053376;28;20037;-71
2021/07/14 04:19:32;;;;;;;10.73;7.85;;;20.50;74.20;;;;;;5053701;28;20017;-71
2021/07/14 04:21:58;;;;;;;9.32;6.18;;;20.50;74.00;;;;;;5053680;28;20096;-72
2021/07/14 04:24:24;;;;;;;8.10;5.95;;;20.50;73.70;;;;;;5053719;28;20147;-72
2021/07/14 04:26:50;;;;;;;9.85;5.57;;;20.50;73.70;;;;;;5053469;28;20025;-72
2021/07/14 04:29:17;;;;;;;5.13;4.43;;;20.60;73.50;;;;;;5053354;28;20372;-72
2021/07/14 04:31:43;;;;;;;6.50;3.50;;;20.50;73.00;;;;;;5052258;28;20390;-74
2021/07/14 04:34:09;;;;;;;6.25;2.95;;;20.50;73.00;;;;;;5053408;28;20025;-72
2021/07/14 04:36:36;;;;;;;2.90;2.60;;;20.50;73.00;;;;;;5052026;28;20494;-72
2021/07/14 04:39:04;;;;;;;6.50;4.03;;;20.50;73.20;;;;;;5052050;28;20057;-72
2021/07/14 04:41:30;;;;;;;7.97;5.00;;;20.60;73.00;;;;;;5052079;28;20496;-73
2021/07/14 04:43:58;;;;;;;6.85;5.50;;;20.50;72.90;;;;;;5052006;28;20115;-73
2021/07/14 04:46:24;;;;;;;6.15;5.22;;;20.50;72.80;;;;;;5053121;28;20017;-72
2021/07/14 04:48:50;;;;;;;6.95;5.22;;;20.60;72.60;;;;;;5053045;28;20052;-73
2021/07/14 04:51:16;;;;;;;12.85;9.07;;;20.60;72.60;;;;;;5053034;28;20052;-72
2021/07/14 04:53:41;;;;;;;10.55;7.93;;;20.60;72.10;;;;;;5051939;28;20025;-72
2021/07/14 04:56:08;;;;;;;12.27;10.15;;;20.60;72.40;;;;;;5053107;28;20478;-72
2021/07/14 04:58:33;;;;;;;15.60;11.65;;;20.60;72.40;;;;;;5053044;28;20068;-73
2021/07/14 05:00:59;;;;;;;19.73;12.00;;;20.60;72.40;;;;;;5051461;28;20068;-72
2021/07/14 05:03:25;;;;;;;11.93;10.55;;;20.60;72.20;;;;;;5051742;28;20104;-73
2021/07/14 05:05:52;;;;;;;12.07;9.75;;;20.60;72.50;;;;;;5051640;28;20025;-72
2021/07/14 05:08:17;;;;;;;10.35;8.68;;;20.70;73.00;;;;;;5052947;28;20021;-72
2021/07/14 05:10:44;;;;;;;10.75;9.40;;;20.80;73.40;;;;;;5052713;28;20382;-73
2021/07/14 05:13:09;;;;;;;10.05;8.40;;;20.90;73.60;;;;;;5052869;28;20025;-72
2021/07/14 05:15:35;;;;;;;13.88;9.68;;;21.00;73.50;;;;;;5052759;28;20032;-73
2021/07/14 05:18:01;;;;;;;12.32;9.20;;;21.00;73.40;;;;;;5051262;28;20112;-73
2021/07/14 05:20:28;;;;;;;8.95;8.02;;;21.10;72.80;;;;;;5052764;28;20386;-73
2021/07/14 05:22:53;;;;;;;15.70;9.40;;;21.20;72.50;;;;;;5052717;28;20017;-73
2021/07/14 05:25:19;;;;;;;10.13;8.35;;;21.30;71.80;;;;;;5052595;28;20021;-73
2021/07/14 05:27:46;;;;;;;11.18;8.93;;;21.30;71.90;;;;;;5054534;28;20494;-73
2021/07/14 05:30:13;;;;;;;7.70;6.50;;;21.40;71.80;;;;;;5057162;28;20021;-73
2021/07/14 05:32:39;;;;;;;8.27;6.78;;;21.40;72.00;;;;;;5056914;28;20100;-73
2021/07/14 05:35:06;;;;;;;10.73;6.90;;;21.50;71.90;;;;;;5055194;28;20117;-73
2021/07/14 05:37:32;;;;;;;8.05;6.45;;;21.50;71.30;;;;;;5064072;28;20108;-73
2021/07/14 05:39:58;;;;;;;9.77;5.72;;;21.50;70.60;;;;;;5076656;28;20052;-73
2021/07/14 05:42:23;;;;;;;7.20;5.60;;;21.50;70.00;;;;;;5063544;28;20106;-73
2021/07/14 05:44:49;;;;;;;6.10;4.90;;;21.50;69.70;;;;;;5056634;28;20025;-73
2021/07/14 05:47:15;;;;;;;5.95;4.47;;;21.50;69.60;;;;;;5056315;28;20036;-73
2021/07/14 05:49:43;;;;;;;6.90;4.90;;;21.50;70.00;;;;;;5056311;28;20060;-73
2021/07/14 05:52:09;;;;;;;4.53;4.07;;;21.60;70.60;;;;;;5056439;28;20029;-73
2021/07/14 05:54:35;;;;;;;6.07;4.32;;;21.60;70.40;;;;;;5056416;28;20028;-74
2021/07/14 05:57:01;;;;;;;8.27;4.40;;;21.70;70.50;;;;;;5056265;28;20021;-72
2021/07/14 05:59:26;;;;;;;5.95;3.97;;;21.80;70.30;;;;;;5056257;28;20051;-71
2021/07/14 06:01:52;;;;;;;10.38;7.68;;;21.80;70.60;;;;;;5056149;28;20036;-74
2021/07/14 06:04:18;;;;;;;27.23;17.08;;;21.90;70.60;;;;;;5072865;28;20086;-72
2021/07/14 06:06:44;;;;;;;30.95;19.95;;;22.00;70.00;;;;;;5070648;28;20032;-72
2021/07/14 06:09:10;;;;;;;33.50;21.13;;;22.10;70.00;;;;;;5075944;28;20025;-72
2021/07/14 06:11:36;;;;;;;25.70;14.23;;;22.20;69.70;;;;;;5076138;28;20036;-72
2021/07/14 06:14:03;;;;;;;26.95;15.57;;;22.20;69.00;;;;;;5076004;28;20024;-72
2021/07/14 06:16:29;;;;;;;27.30;15.35;;;22.30;69.20;;;;;;5075851;28;20115;-72
2021/07/14 06:18:55;;;;;;;20.08;13.90;;;22.30;68.50;;;;;;5073783;28;20419;-73
2021/07/14 06:21:22;;;;;;;17.48;11.32;;;22.40;68.50;;;;;;5066469;28;20082;-73
2021/07/14 06:23:49;;;;;;;10.43;7.20;;;22.40;68.80;;;;;;5071490;28;20070;-73
2021/07/14 06:26:15;;;;;;;6.75;5.38;;;22.50;68.60;;;;;;5073902;28;20033;-73
2021/07/14 06:28:40;;;;;;;5.32;4.57;;;22.50;68.80;;;;;;5071478;28;20035;-73
2021/07/14 06:31:06;;;;;;;7.45;4.72;;;22.60;68.70;;;;;;5059861;28;20040;-73
2021/07/14 06:33:35;;;;;;;4.75;4.25;;;22.60;68.80;;;;;;5059513;28;20029;-73
2021/07/14 06:36:02;;;;;;;9.10;3.47;;;22.60;68.40;;;;;;5059713;28;20486;-73
2021/07/14 06:38:29;;;;;;;5.05;3.25;;;22.60;68.10;;;;;;5074391;28;20051;-74
2021/07/14 06:40:55;;;;;;;3.58;3.22;;;22.70;68.30;;;;;;5074917;28;20077;-73
2021/07/14 06:43:21;;;;;;;4.47;3.70;;;22.70;68.00;;;;;;5070131;28;20029;-73
2021/07/14 06:45:47;;;;;;;4.13;3.53;;;22.80;68.00;;;;;;5055251;28;20100;-73
2021/07/14 06:48:14;;;;;;;5.10;3.50;;;22.80;67.60;;;;;;5066008;28;20549;-73
2021/07/14 06:50:40;;;;;;;7.50;3.58;;;22.90;67.50;;;;;;5063361;28;20045;-73
2021/07/14 06:53:07;;;;;;;4.85;3.22;;;22.90;67.30;;;;;;5075372;28;20032;-73
2021/07/14 06:55:33;;;;;;;4.65;3.55;;;22.90;67.40;;;;;;5075376;28;20024;-73
2021/07/14 06:58:00;;;;;;;10.38;3.95;;;23.00;66.50;;;;;;5057973;28;20033;-73
2021/07/14 07:00:26;;;;;;;3.15;2.85;;;22.90;65.30;;;;;;5073578;28;20110;-73
2021/07/14 07:02:52;;;;;;;5.57;4.32;;;22.90;66.40;;;;;;5067653;28;20028;-73
2021/07/14 07:05:18;;;;;;;5.55;4.93;;;22.90;66.40;;;;;;5055129;28;20028;-73
2021/07/14 07:07:44;;;;;;;6.97;5.53;;;23.00;66.90;;;;;;5057168;28;20025;-73
2021/07/14 07:10:10;;;;;;;10.55;8.88;;;23.00;67.00;;;;;;5069199;28;20504;-73
2021/07/14 07:12:36;;;;;;;11.18;7.93;;;23.00;65.70;;;;;;5071804;28;20479;-73
2021/07/14 07:15:03;;;;;;;9.30;7.60;;;23.00;65.80;;;;;;5054876;28;20025;-73
2021/07/14 07:17:29;;;;;;;9.23;6.90;;;23.00;66.30;;;;;;5055475;28;20104;-73
2021/07/14 07:19:55;;;;;;;7.88;7.03;;;23.00;66.20;;;;;;5066930;28;20110;-73
2021/07/14 07:22:21;;;;;;;10.68;7.88;;;23.00;65.30;;;;;;5067300;28;20024;-73
2021/07/14 07:24:47;;;;;;;10.52;8.43;;;23.00;64.90;;;;;;5065102;28;20497;-73
2021/07/14 07:27:13;;;;;;;9.88;7.97;;;22.90;64.70;;;;;;5057648;28;20098;-73
2021/07/14 07:29:38;;;;;;;12.25;9.07;;;22.90;65.30;;;;;;5060279;28;20056;-73
2021/07/14 07:32:05;;;;;;;12.20;8.57;;;22.80;66.00;;;;;;5058081;28;20495;-73
2021/07/14 07:34:30;;;;;;;13.27;9.80;;;22.80;64.50;;;;;;5065052;28;20036;-73
2021/07/14 07:36:56;;;;;;;15.75;10.35;;;22.70;64.60;;;;;;5072874;28;20036;-73
2021/07/14 07:39:22;;;;;;;12.27;8.00;;;22.70;65.00;;;;;;5073442;28;20174;-73
2021/07/14 07:41:50;;;;;;;14.85;9.18;;;22.70;66.00;;;;;;5059104;28;20471;-73
2021/07/14 07:44:16;;;;;;;10.48;8.48;;;22.70;66.90;;;;;;5053193;28;20027;-73
2021/07/14 07:46:42;;;;;;;11.23;7.63;;;22.90;66.80;;;;;;5051868;28;20033;-73
2021/07/14 07:49:08;;;;;;;10.18;7.53;;;23.00;66.80;;;;;;5053043;28;20033;-73
2021/07/14 07:51:35;;;;;;;8.63;7.32;;;23.10;65.70;;;;;;5051222;28;20384;-73
2021/07/14 07:54:03;;;;;;;8.88;6.70;;;23.20;65.10;;;;;;5052921;28;20024;-73
2021/07/14 07:56:31;;;;;;;10.43;7.85;;;23.30;64.00;;;;;;5053158;28;20032;-73
2021/07/14 07:59:04;;;;;;;11.10;8.20;;;23.40;63.50;;;;;;5053155;28;20020;-73
2021/07/14 08:01:31;;;;;;;12.18;10.13;;;23.60;63.40;;;;;;5051196;28;20031;-73
2021/07/14 08:03:57;;;;;;;10.73;8.93;;;23.70;63.20;;;;;;5051481;28;20031;-73
2021/07/14 08:06:22;;;;;;;14.02;9.57;;;23.80;63.50;;;;;;5051540;28;20017;-73
2021/07/14 08:08:48;;;;;;;13.73;11.07;;;23.90;63.10;;;;;;5052891;28;20044;-73
2021/07/14 08:11:14;;;;;;;10.07;8.80;;;24.00;61.20;;;;;;5051358;28;20047;-73
2021/07/14 08:13:40;;;;;;;13.25;10.43;;;24.10;62.10;;;;;;5052617;28;20119;-73
2021/07/14 08:16:07;;;;;;;11.45;9.98;;;24.20;61.10;;;;;;5052551;28;20029;-73
2021/07/14 08:18:32;;;;;;;12.20;9.73;;;24.30;59.80;;;;;;5052235;28;20485;-73
2021/07/14 08:20:58;;;;;;;10.82;9.60;;;24.30;60.50;;;;;;5052577;28;20062;-73
2021/07/14 08:23:25;;;;;;;10.82;9.20;;;24.40;60.60;;;;;;5051217;28;20029;-73
2021/07/14 08:25:51;;;;;;;11.07;9.63;;;24.50;61.20;;;;;;5052474;28;20017;-73
2021/07/14 08:28:18;;;;;;;10.50;9.40;;;24.60;60.30;;;;;;5052255;28;20033;-73
2021/07/14 08:30:44;;;;;;;9.85;8.38;;;24.70;58.90;;;;;;5051039;28;20483;-73
2021/07/14 08:33:10;;;;;;;11.63;9.48;;;24.80;59.80;;;;;;5052449;28;20036;-73
2021/07/14 08:35:36;;;;;;;9.73;8.73;;;24.80;58.70;;;;;;5052260;28;20083;-74
2021/07/14 08:38:03;;;;;;;12.20;8.45;;;24.80;59.10;;;;;;5050826;28;20497;-73
2021/07/14 08:40:28;;;;;;;10.20;7.90;;;24.80;59.20;;;;;;5052189;28;20017;-73
2021/07/14 08:42:58;;;;;;;11.05;8.52;;;24.70;59.50;;;;;;5056392;28;20031;-72
2021/07/14 08:45:25;;;;;;;11.45;9.80;;;24.80;59.50;;;;;;5072437;28;20013;-72
2021/07/14 08:47:51;;;;;;;13.80;10.05;;;24.70;57.80;;;;;;5061932;28;20025;-72
2021/07/14 08:50:19;;;;;;;13.10;8.48;;;24.70;57.50;;;;;;5050471;28;20372;-72
2021/07/14 08:52:48;;;;;;;8.80;7.38;;;24.60;56.50;;;;;;5051748;28;20024;-72
2021/07/14 08:55:17;;;;;;;8.45;7.03;;;24.50;56.30;;;;;;5051629;28;20079;-72
2021/07/14 08:57:44;;;;;;;8.73;7.35;;;24.50;57.10;;;;;;5051565;28;20029;-72
2021/07/14 09:00:14;;;;;;;8.70;7.38;;;24.50;57.30;;;;;;5051893;28;20028;-73
2021/07/14 09:02:41;;;;;;;10.13;7.18;;;24.60;57.50;;;;;;5050927;28;20025;-73
2021/07/14 09:05:08;;;;;;;10.32;7.55;;;24.60;57.20;;;;;;5051826;28;20032;-72
2021/07/14 09:07:35;;;;;;;9.70;7.18;;;24.70;56.60;;;;;;5051648;28;20025;-73
2021/07/14 09:10:06;;;;;;;9.68;6.82;;;24.70;56.20;;;;;;5051816;28;20103;-72
2021/07/14 09:12:41;;;;;;;10.52;7.22;;;24.70;56.60;;;;;;5051594;28;20078;-73
2021/07/14 09:15:10;;;;;;;11.85;7.63;;;24.70;56.90;;;;;;5051774;28;20386;-72
2021/07/14 09:17:49;;;;;;;8.18;6.70;;;24.70;56.90;;;;;;5050287;28;20044;-72
2021/07/14 09:20:19;;;;;;;8.18;5.97;;;24.80;58.00;;;;;;5051946;28;20022;-72
2021/07/14 09:22:46;;;;;;;7.13;5.53;;;24.90;58.00;;;;;;5050294;28;20025;-73
2021/07/14 09:25:15;;;;;;;6.55;5.60;;;25.00;58.20;;;;;;5060623;28;20021;-73
2021/07/14 09:27:55;;;;;;;6.15;5.00;;;25.10;58.10;;;;;;5071891;28;20029;-73
2021/07/14 09:30:23;;;;;;;10.07;5.30;;;25.20;58.90;;;;;;5071842;28;20406;-73
2021/07/14 09:32:55;;;;;;;5.28;4.35;;;25.30;56.60;;;;;;5071364;28;20086;-73
2021/07/14 09:35:46;;;;;;;4.65;3.97;;;25.40;56.70;;;;;;5060924;28;20499;-73
2021/07/14 09:38:17;;;;;;;4.05;3.42;;;25.50;58.00;;;;;;5049897;28;20033;-73
2021/07/14 09:40:45;;;;;;;6.60;4.40;;;25.70;58.40;;;;;;5050185;28;20021;-73
2021/07/14 09:43:14;;;;;;;4.93;3.55;;;25.80;57.90;;;;;;5051525;28;20383;-73
2021/07/14 09:45:49;;;;;;;2.90;2.60;;;26.00;56.10;;;;;;5054499;28;20027;-74
2021/07/14 09:48:32;;;;;;;3.15;2.75;;;26.10;57.30;;;;;;5053136;28;20033;-73
2021/07/14 09:51:09;;;;;;;3.13;2.67;;;26.40;57.00;;;;;;5052038;28;20124;-73
2021/07/14 09:53:36;;;;;;;2.97;1.83;;;26.60;55.80;;;;;;5052438;28;20059;-73
2021/07/14 09:56:26;;;;;;;2.20;2.00;;;26.80;56.20;;;;;;5054200;28;20028;-74
2021/07/14 09:59:03;;;;;;;2.33;1.80;;;27.10;55.90;;;;;;5064994;28;20041;-74
2021/07/14 10:01:45;;;;;;;2.40;1.80;;;27.30;54.60;;;;;;5058973;28;20025;-74
2021/07/14 10:04:12;;;;;;;2.40;1.50;;;27.40;52.70;;;;;;5071453;28;20086;-73
2021/07/14 10:06:39;;;;;;;2.08;1.67;;;27.60;54.30;;;;;;5067140;28;20029;-74
2021/07/14 10:09:05;;;;;;;5.50;1.63;;;27.70;51.80;;;;;;5055264;28;20056;-74
2021/07/14 10:11:32;;;;;;;1.90;1.48;;;27.80;52.40;;;;;;5058422;28;20029;-73
2021/07/14 10:14:08;;;;;;;2.92;1.40;;;27.90;51.10;;;;;;5056762;28;20040;-74
2021/07/14 10:16:40;;;;;;;1.10;1.00;;;27.90;51.80;;;;;;5055678;28;20060;-73
2021/07/14 10:19:08;;;;;;;2.45;1.50;;;27.90;50.90;;;;;;5068732;28;20030;-74
2021/07/14 10:21:48;;;;;;;1.38;1.23;;;27.90;51.10;;;;;;5072727;28;20092;-73
2021/07/14 10:24:19;;;;;;;1.48;1.13;;;28.00;54.10;;;;;;5064181;28;20049;-73
2021/07/14 10:26:48;;;;;;;1.73;1.25;;;28.10;51.70;;;;;;5072329;28;20020;-73
2021/07/14 10:29:17;;;;;;;2.05;1.25;;;28.20;49.60;;;;;;5075797;28;20085;-74
2021/07/14 10:31:47;;;;;;;1.33;1.17;;;28.20;49.50;;;;;;5070272;28;20017;-74
2021/07/14 10:34:17;;;;;;;2.55;1.75;;;28.20;49.20;;;;;;5067544;28;20060;-74
2021/07/14 10:36:43;;;;;;;4.78;3.13;;;28.20;48.90;;;;;;5053275;28;20025;-74
2021/07/14 10:39:12;;;;;;;2.22;1.83;;;28.30;48.40;;;;;;5059226;28;20025;-74
2021/07/14 10:41:39;;;;;;;2.75;1.30;;;28.30;48.40;;;;;;5054554;28;20441;-75
2021/07/14 10:44:06;;;;;;;2.50;1.67;;;28.30;48.50;;;;;;5053224;28;20032;-74
2021/07/14 10:46:34;;;;;;;4.88;1.40;;;28.30;48.30;;;;;;5053367;28;20028;-74
2021/07/14 10:49:03;;;;;;;1.83;1.20;;;28.30;47.90;;;;;;5054340;28;20029;-74
2021/07/14 10:51:31;;;;;;;3.90;1.42;;;28.30;48.00;;;;;;5054471;28;20344;-73
2021/07/14 10:54:03;;;;;;;2.47;1.15;;;28.30;48.30;;;;;;5054661;28;20021;-74
2021/07/14 10:56:35;;;;;;;1.33;1.05;;;28.30;48.50;;;;;;5053302;28;20368;-73
2021/07/14 10:59:03;;;;;;;1.50;1.30;;;28.40;48.10;;;;;;5057270;28;20082;-74
2021/07/14 11:01:49;;;;;;;1.80;1.00;;;28.40;47.90;;;;;;5069387;28;20089;-73
2021/07/14 11:04:27;;;;;;;5.20;1.48;;;28.40;47.90;;;;;;5054032;28;20104;-74
2021/07/14 11:07:06;;;;;;;2.10;1.30;;;28.50;48.70;;;;;;5052849;28;20024;-74
2021/07/14 11:09:47;;;;;;;4.82;1.27;;;28.50;48.20;;;;;;5054587;28;20040;-73
2021/07/14 11:12:38;;;;;;;1.23;1.13;;;28.60;49.40;;;;;;5055294;28;20387;-73
2021/07/14 11:15:06;;;;;;;1.30;1.08;;;28.70;48.30;;;;;;5052863;28;20017;-73
2021/07/14 11:17:34;;;;;;;1.67;1.15;;;28.80;47.90;;;;;;5053725;28;20167;-73
2021/07/14 11:20:13;;;;;;;2.28;1.33;;;29.00;47.60;;;;;;5055501;28;20035;-73
2021/07/14 11:22:42;;;;;;;1.40;1.30;;;29.00;46.30;;;;;;5054084;28;20390;-72
2021/07/14 11:25:20;;;;;;;1.20;1.10;;;29.10;47.30;;;;;;5061768;28;20017;-74
2021/07/14 11:27:49;;;;;;;2.58;1.50;;;29.20;47.50;;;;;;5060351;28;20076;-74
2021/07/14 11:30:15;;;;;;;2.15;1.25;;;29.30;45.80;;;;;;5067475;28;20032;-73
2021/07/14 11:32:44;;;;;;;2.55;1.33;;;29.30;47.30;;;;;;5052616;28;20501;-74
2021/07/14 11:35:20;;;;;;;2.30;1.35;;;29.40;45.80;;;;;;5053709;28;20028;-74
2021/07/14 11:37:53;;;;;;;1.20;0.88;;;29.40;44.80;;;;;;5053772;28;20486;-75
2021/07/14 11:40:19;;;;;;;1.83;1.13;;;29.30;47.60;;;;;;5053811;28;20020;-74
2021/07/14 11:42:57;;;;;;;2.35;1.55;;;29.30;46.20;;;;;;5053404;28;20108;-73
2021/07/14 11:45:35;;;;;;;2.45;1.65;;;29.30;44.90;;;;;;5053403;28;20025;-74
2021/07/14 11:48:06;;;;;;;6.03;1.40;;;29.20;45.80;;;;;;5053275;28;20016;-74
2021/07/14 11:50:44;;;;;;;1.10;1.00;;;29.20;47.10;;;;;;5053303;28;20047;-74
2021/07/14 11:53:27;;;;;;;2.97;1.63;;;29.20;45.40;;;;;;5058174;28;20453;-73
2021/07/14 11:56:00;;;;;;;2.08;1.52;;;29.10;46.00;;;;;;5053760;28;20029;-72
2021/07/14 11:58:45;;;;;;;1.77;1.42;;;29.00;44.10;;;;;;5058571;28;20033;-72
2021/07/14 12:01:31;;;;;;;1.73;1.52;;;29.00;45.00;;;;;;5053849;28;20017;-72
2021/07/14 12:06:37;;;;;;;2.22;1.30;;;29.00;44.90;;;;;;5053709;28;20017;-74
2021/07/14 12:09:13;;;;;;;2.15;1.20;;;29.00;44.60;;;;;;5054239;28;20021;-73
2021/07/14 12:11:51;;;;;;;1.70;1.40;;;29.10;45.20;;;;;;5052656;28;20025;-73
2021/07/14 12:14:20;;;;;;;1.23;1.10;;;29.30;46.50;;;;;;5053912;28;20037;-73
2021/07/14 12:16:47;;;;;;;1.35;1.05;;;29.50;46.40;;;;;;5053719;28;20057;-74
2021/07/14 12:19:29;;;;;;;1.73;1.23;;;29.70;44.20;;;;;;5053755;28;20079;-74
2021/07/14 12:21:57;;;;;;;2.35;1.50;;;29.80;43.20;;;;;;5053689;28;20017;-76
2021/07/14 12:24:32;;;;;;;2.58;1.42;;;29.90;43.20;;;;;;5053687;28;20021;-75
2021/07/14 12:27:00;;;;;;;1.65;1.35;;;30.00;43.90;;;;;;5052326;28;20480;-76
2021/07/14 12:29:26;;;;;;;2.88;1.50;;;30.00;44.80;;;;;;5052248;28;20047;-74
2021/07/14 12:31:52;;;;;;;2.00;1.60;;;30.10;44.10;;;;;;5053489;28;20024;-77
2021/07/14 12:34:25;;;;;;;2.15;1.70;;;30.20;43.60;;;;;;5053311;28;20102;-77
2021/07/14 12:36:51;;;;;;;2.55;1.40;;;30.20;42.80;;;;;;5053582;28;20017;-78
2021/07/14 12:39:28;;;;;;;5.45;1.60;;;30.30;43.00;;;;;;5051999;28;20101;-75
2021/07/14 12:41:56;;;;;;;2.45;1.45;;;30.30;42.70;;;;;;5053385;28;20045;-77
2021/07/14 12:44:23;;;;;;;1.98;1.55;;;30.40;44.30;;;;;;5053240;28;20025;-76
2021/07/14 12:46:49;;;;;;;3.25;1.40;;;30.40;43.60;;;;;;5053337;28;20025;-75
2021/07/14 12:49:17;;;;;;;2.58;1.52;;;30.50;43.70;;;;;;5073049;28;20025;-76
2021/07/14 12:52:00;;;;;;;1.15;1.05;;;30.50;42.70;;;;;;5071986;28;20032;-75
2021/07/14 12:54:26;;;;;;;4.72;1.70;;;30.50;42.50;;;;;;5073437;28;20036;-75
2021/07/14 12:56:52;;;;;;;5.30;1.30;;;30.50;41.30;;;;;;5072008;28;20153;-76
2021/07/14 12:59:17;;;;;;;6.38;1.95;;;30.50;42.60;;;;;;5071977;28;20039;-75
2021/07/14 13:01:47;;;;;;;5.72;1.42;;;30.50;43.20;;;;;;5073283;28;20024;-76
2021/07/14 13:04:15;;;;;;;3.05;1.80;;;30.50;43.90;;;;;;5073343;28;20024;-75